METAR Data
IDs: Format: Raw Decoded Include TAF

Data at: 0905 UTC 03 Aug 2021

SAEZ 030900Z 36004KT CAVOK 06/04 Q1027 NOSIG